Accueil
METAR-TAF:

METAR-TAF

Aéroports :

Gastonia Municipal Airport

Gastonia, Caroline du Nord, États-Unis

latitude: 35-11-48N, longitude: 081-09-21W, altitude: 243 m

Observation

Le bulletin a été fait il y a 45 minutes, à 06:54 UTC
Vent 5 kt de direction variable
Température 22°C
Humidité 73%
Pression 1017 hPa
Visibilité: 16.1 km
Ciel clair

METAR: KAKH 030654Z AUTO VRB05KT 10SM CLR 22/17 A3003 RMK AO2 SLP161 T02220167

Heure: 03:39 (07:39 UTC)


TAF: absent

Observations et prévisions météorologiques de plus de 4000 aéroports (messages METAR et TAF).

Les stations disponibles sont représentées par des disques jaunes et rouges sur la carte.

Passer la souris dessus pour voir le nom de la station.

Cliquer dessus pour voir les observations et prévisions météorologiques.

Pour changer de carte: cliquez sur les boutons verts avec une croix noire pour zoomer, sur le bouton vert avec un tiret pour effectuer un zoom arrière, ou sur les flèches vertes pour les cartes adjacentes.


METAR-TAF: